createdAt,value
2023-03-29T00:00:48.938Z,10.56
2023-03-29T00:03:16.040Z,10.55
2023-03-29T00:05:44.046Z,10.55
2023-03-29T00:08:13.830Z,10.57
2023-03-29T00:10:40.524Z,10.61
2023-03-29T00:13:06.461Z,10.63
2023-03-29T00:15:33.097Z,10.65
2023-03-29T00:17:59.332Z,10.70
2023-03-29T00:20:25.337Z,10.76
2023-03-29T00:22:51.312Z,10.79
2023-03-29T00:25:17.332Z,10.81
2023-03-29T00:27:43.118Z,10.84
2023-03-29T00:30:09.724Z,10.85
2023-03-29T00:32:36.637Z,10.87
2023-03-29T00:35:05.334Z,10.91
2023-03-29T00:37:31.557Z,10.94
2023-03-29T00:39:57.700Z,10.97
2023-03-29T00:42:23.972Z,11.00
2023-03-29T00:45:11.236Z,11.01
2023-03-29T00:47:40.838Z,11.04
2023-03-29T00:50:15.925Z,11.05
2023-03-29T00:52:45.693Z,11.06
2023-03-29T00:55:17.090Z,11.06
2023-03-29T00:57:45.884Z,11.08
2023-03-29T01:00:20.261Z,11.08
2023-03-29T01:02:53.386Z,11.09
2023-03-29T01:05:28.955Z,11.07
2023-03-29T01:08:00.464Z,11.05
2023-03-29T01:10:43.301Z,11.02
2023-03-29T01:13:40.788Z,10.98
2023-03-29T01:16:10.431Z,10.95
2023-03-29T01:18:37.756Z,10.93
2023-03-29T01:21:16.440Z,10.92
2023-03-29T01:24:07.817Z,10.91
2023-03-29T01:26:50.574Z,10.90
2023-03-29T01:29:27.871Z,10.86
2023-03-29T01:32:06.326Z,10.82
2023-03-29T01:34:46.698Z,10.80
2023-03-29T01:37:28.440Z,10.80
2023-03-29T01:39:54.636Z,10.80
2023-03-29T01:42:30.405Z,10.79
2023-03-29T01:45:26.589Z,10.76
2023-03-29T01:48:10.364Z,10.70
2023-03-29T01:50:53.669Z,10.67
2023-03-29T01:53:31.813Z,10.65
2023-03-29T01:56:11.046Z,10.62
2023-03-29T01:58:42.773Z,10.59
2023-03-29T02:01:10.994Z,10.57
2023-03-29T02:03:41.895Z,10.58
2023-03-29T02:06:12.139Z,10.50
2023-03-29T02:08:40.886Z,10.42
2023-03-29T02:11:08.120Z,10.37
2023-03-29T02:13:35.316Z,10.34
2023-03-29T02:16:13.089Z,10.33
2023-03-29T02:18:41.980Z,10.33
2023-03-29T02:21:21.440Z,10.30
2023-03-29T02:23:49.727Z,10.27
2023-03-29T02:26:17.281Z,10.26
2023-03-29T02:28:43.502Z,10.27
2023-03-29T02:31:18.350Z,10.28
2023-03-29T02:33:53.434Z,10.28
2023-03-29T02:36:40.863Z,10.27
2023-03-29T02:39:09.511Z,10.25
2023-03-29T02:41:37.377Z,10.21
2023-03-29T02:44:07.538Z,10.15
2023-03-29T02:46:34.012Z,10.12
2023-03-29T02:49:00.383Z,10.10
2023-03-29T02:51:31.886Z,10.07
2023-03-29T02:54:04.670Z,10.04
2023-03-29T02:56:42.603Z,10.02
2023-03-29T02:59:09.138Z,10.00
2023-03-29T03:01:36.310Z,9.98
2023-03-29T03:04:03.064Z,9.98
2023-03-29T03:06:29.420Z,9.98
2023-03-29T03:08:55.486Z,9.98
2023-03-29T03:11:22.234Z,9.98
2023-03-29T03:13:48.196Z,9.98
2023-03-29T03:16:14.400Z,9.99
2023-03-29T03:18:41.487Z,10.00
2023-03-29T03:21:07.432Z,10.00
2023-03-29T03:23:33.995Z,10.02
2023-03-29T03:26:00.219Z,10.02
2023-03-29T03:28:27.955Z,10.01
2023-03-29T03:30:54.190Z,10.01
2023-03-29T03:33:42.936Z,10.01
2023-03-29T03:36:28.782Z,10.01
2023-03-29T03:38:54.853Z,10.02
2023-03-29T03:41:20.758Z,10.04
2023-03-29T03:43:48.411Z,10.05
2023-03-29T03:46:16.492Z,10.02
2023-03-29T03:48:44.071Z,9.86
2023-03-29T03:51:17.719Z,9.76
2023-03-29T03:53:43.955Z,9.60
2023-03-29T03:56:13.322Z,9.50
2023-03-29T03:59:08.699Z,9.44
2023-03-29T04:01:56.149Z,9.31
2023-03-29T04:04:22.831Z,9.24
2023-03-29T04:07:02.067Z,9.22
2023-03-29T04:09:56.680Z,9.24
2023-03-29T04:12:32.044Z,9.21
2023-03-29T04:14:58.010Z,9.13
2023-03-29T04:17:26.585Z,9.13
2023-03-29T04:19:56.887Z,9.13
2023-03-29T04:22:27.352Z,9.16
2023-03-29T04:24:53.428Z,9.18
2023-03-29T04:27:38.273Z,9.20
2023-03-29T04:30:10.580Z,9.19
2023-03-29T04:32:56.292Z,9.18
2023-03-29T04:35:22.528Z,9.18
2023-03-29T04:37:50.524Z,9.21
2023-03-29T04:40:18.872Z,9.23
2023-03-29T04:42:52.084Z,9.25
2023-03-29T04:45:18.923Z,9.29
2023-03-29T04:48:03.036Z,9.34
2023-03-29T04:50:29.133Z,9.32
2023-03-29T04:52:56.504Z,9.21
2023-03-29T04:55:22.587Z,9.06
2023-03-29T04:57:58.138Z,8.92
2023-03-29T05:00:30.960Z,8.85
2023-03-29T05:03:15.399Z,8.81
2023-03-29T05:06:13.726Z,8.85
2023-03-29T05:08:40.471Z,8.91
2023-03-29T05:11:19.175Z,9.00
2023-03-29T05:13:45.431Z,9.03
2023-03-29T05:16:11.643Z,8.94
2023-03-29T05:18:37.864Z,8.83
2023-03-29T05:21:04.938Z,8.81
2023-03-29T05:23:31.979Z,8.84
2023-03-29T05:26:09.285Z,8.90
2023-03-29T05:28:35.993Z,8.96
2023-03-29T05:31:05.092Z,9.04
2023-03-29T05:33:34.024Z,9.14
2023-03-29T05:36:10.297Z,9.24
2023-03-29T05:38:41.461Z,9.33
2023-03-29T05:41:08.089Z,9.39
2023-03-29T05:44:00.092Z,9.41
2023-03-29T05:46:27.459Z,9.45
2023-03-29T05:48:56.132Z,9.50
2023-03-29T05:51:27.693Z,9.56
2023-03-29T05:53:54.259Z,9.62
2023-03-29T05:56:20.182Z,9.68
2023-03-29T05:58:46.068Z,9.74
2023-03-29T06:01:13.949Z,9.81
2023-03-29T06:03:52.991Z,9.91
2023-03-29T06:06:20.753Z,10.02
2023-03-29T06:08:47.176Z,10.14
2023-03-29T06:11:29.885Z,10.29
2023-03-29T06:14:14.970Z,10.42
2023-03-29T06:16:46.414Z,10.34
2023-03-29T06:19:12.949Z,10.24
2023-03-29T06:21:40.581Z,10.15
2023-03-29T06:24:06.819Z,10.14
2023-03-29T06:26:37.356Z,10.21
2023-03-29T06:29:03.875Z,10.32
2023-03-29T06:31:31.564Z,10.48
2023-03-29T06:33:57.996Z,10.65
2023-03-29T06:36:34.344Z,10.82
2023-03-29T06:39:03.312Z,10.86
2023-03-29T06:41:49.496Z,10.81
2023-03-29T06:44:41.490Z,10.85
2023-03-29T06:47:13.552Z,10.97
2023-03-29T06:49:40.318Z,11.02
2023-03-29T06:52:22.466Z,11.18
2023-03-29T06:54:48.885Z,11.35
2023-03-29T06:57:14.892Z,11.40
2023-03-29T06:59:41.747Z,11.40
2023-03-29T07:02:22.089Z,11.36
2023-03-29T07:04:55.608Z,11.34
2023-03-29T07:07:32.589Z,11.45
2023-03-29T07:10:08.821Z,11.72
2023-03-29T07:13:02.348Z,12.00
2023-03-29T07:15:28.754Z,12.15
2023-03-29T07:18:30.024Z,12.24
2023-03-29T07:20:56.765Z,12.37
2023-03-29T07:23:23.147Z,12.52
2023-03-29T07:25:50.548Z,12.72
2023-03-29T07:28:17.957Z,12.86
2023-03-29T07:30:43.923Z,13.03
2023-03-29T07:33:12.669Z,13.23
2023-03-29T07:35:48.067Z,13.49
2023-03-29T07:38:14.931Z,13.61
2023-03-29T07:40:45.656Z,13.74
2023-03-29T07:43:30.116Z,13.84
2023-03-29T07:46:00.638Z,13.87
2023-03-29T07:48:27.011Z,13.94
2023-03-29T07:50:58.001Z,14.03
2023-03-29T07:53:29.144Z,14.09
2023-03-29T07:55:56.523Z,14.23
2023-03-29T07:58:41.562Z,14.44
2023-03-29T08:01:07.873Z,14.53
2023-03-29T08:04:09.497Z,14.50
2023-03-29T08:06:58.783Z,14.51
2023-03-29T08:09:32.716Z,14.51
2023-03-29T08:11:58.601Z,14.69
2023-03-29T08:14:30.615Z,14.97
2023-03-29T08:17:02.275Z,15.27
2023-03-29T08:19:30.974Z,15.61
2023-03-29T08:22:03.286Z,15.92
2023-03-29T08:24:39.382Z,16.09
2023-03-29T08:27:06.274Z,16.14
2023-03-29T08:29:32.944Z,16.27
2023-03-29T08:31:58.912Z,16.33
2023-03-29T08:34:25.343Z,16.35
2023-03-29T08:37:15.167Z,16.33
2023-03-29T08:39:44.751Z,16.46
2023-03-29T08:42:42.634Z,16.62
2023-03-29T08:45:25.327Z,16.68
2023-03-29T08:47:58.923Z,16.65
2023-03-29T08:50:36.146Z,16.79
2023-03-29T08:53:07.248Z,16.99
2023-03-29T08:55:55.463Z,17.40
2023-03-29T08:58:37.228Z,17.77
2023-03-29T09:01:08.059Z,18.03
2023-03-29T09:03:52.417Z,18.19
2023-03-29T09:06:28.038Z,18.09
2023-03-29T09:08:58.478Z,18.04
2023-03-29T09:11:27.833Z,18.10
2023-03-29T09:14:31.958Z,18.26
2023-03-29T09:17:01.114Z,18.69
2023-03-29T09:19:36.652Z,19.03
2023-03-29T09:22:23.747Z,19.12
2023-03-29T09:25:02.969Z,19.15
2023-03-29T09:27:55.763Z,19.10
2023-03-29T09:30:34.020Z,19.16
2023-03-29T09:33:13.175Z,18.95
2023-03-29T09:36:07.269Z,18.76
2023-03-29T09:38:39.501Z,18.96
2023-03-29T09:41:19.887Z,19.06
2023-03-29T09:43:48.089Z,18.93
2023-03-29T09:46:24.850Z,18.83
2023-03-29T09:48:54.007Z,18.79
2023-03-29T09:51:25.005Z,18.90
2023-03-29T09:53:51.192Z,19.05
2023-03-29T09:56:31.365Z,19.09
2023-03-29T09:59:10.997Z,19.02
2023-03-29T10:01:41.094Z,19.10
2023-03-29T10:04:09.538Z,19.35
2023-03-29T10:06:44.191Z,19.41
2023-03-29T10:09:16.623Z,19.56
2023-03-29T10:11:47.378Z,19.62
2023-03-29T10:14:20.697Z,19.77
2023-03-29T10:16:55.306Z,19.65
2023-03-29T10:19:26.596Z,19.71
2023-03-29T10:21:54.584Z,19.71
2023-03-29T10:24:22.899Z,19.67
2023-03-29T10:26:55.075Z,19.77
2023-03-29T10:29:25.271Z,20.22
2023-03-29T10:31:52.221Z,20.73
2023-03-29T10:34:19.328Z,21.08
2023-03-29T10:36:56.892Z,21.19
2023-03-29T10:39:31.803Z,21.28
2023-03-29T10:41:59.394Z,21.36
2023-03-29T10:44:35.984Z,21.66
2023-03-29T10:47:19.780Z,21.85
2023-03-29T10:49:58.240Z,22.10
2023-03-29T10:52:25.115Z,21.76
2023-03-29T10:54:54.203Z,21.57
2023-03-29T10:57:41.515Z,21.56
2023-03-29T11:00:18.280Z,21.75
2023-03-29T11:02:53.523Z,21.97
2023-03-29T11:05:42.693Z,22.31
2023-03-29T11:08:18.083Z,22.49
2023-03-29T11:11:08.214Z,22.53
2023-03-29T11:13:37.477Z,22.36
2023-03-29T11:16:08.932Z,22.12
2023-03-29T11:18:55.759Z,21.78
2023-03-29T11:21:54.088Z,21.63
2023-03-29T11:24:26.870Z,22.00
2023-03-29T11:27:04.726Z,22.39
2023-03-29T11:29:34.314Z,22.54
2023-03-29T11:32:18.856Z,22.40
2023-03-29T11:35:11.656Z,22.23
2023-03-29T11:37:55.024Z,22.16
2023-03-29T11:40:21.259Z,22.35
2023-03-29T11:42:52.969Z,22.56
2023-03-29T11:45:31.800Z,22.55
2023-03-29T11:48:02.033Z,22.58
2023-03-29T11:50:57.076Z,22.49
2023-03-29T11:53:38.157Z,22.56
2023-03-29T11:56:15.095Z,22.69
2023-03-29T11:58:47.640Z,22.81
2023-03-29T12:01:23.020Z,22.85
2023-03-29T12:03:56.748Z,22.93
2023-03-29T12:06:29.143Z,23.01
2023-03-29T12:09:06.217Z,22.99
2023-03-29T12:11:45.184Z,22.78
2023-03-29T12:14:27.812Z,22.79
2023-03-29T12:17:00.874Z,22.82
2023-03-29T12:19:30.034Z,22.80
2023-03-29T12:21:57.694Z,22.81
2023-03-29T12:24:29.119Z,22.78
2023-03-29T12:27:23.753Z,22.96
2023-03-29T12:30:18.218Z,23.06
2023-03-29T12:33:05.329Z,23.21
2023-03-29T12:36:03.876Z,22.86
2023-03-29T12:38:51.803Z,23.05
2023-03-29T12:41:37.833Z,23.25
2023-03-29T12:44:08.421Z,23.58
2023-03-29T12:46:46.514Z,23.81
2023-03-29T12:49:30.741Z,23.68
2023-03-29T12:51:58.940Z,23.59
2023-03-29T12:54:33.473Z,23.71
2023-03-29T12:57:02.331Z,23.59
2023-03-29T12:59:46.981Z,23.30
2023-03-29T13:02:17.348Z,22.93
2023-03-29T13:04:43.263Z,22.98
2023-03-29T13:07:23.477Z,22.98
2023-03-29T13:09:52.912Z,22.96
2023-03-29T13:12:19.637Z,22.78
2023-03-29T13:15:01.758Z,22.64
2023-03-29T13:17:48.021Z,22.49
2023-03-29T13:20:38.852Z,22.51
2023-03-29T13:23:23.426Z,22.53
2023-03-29T13:25:49.716Z,22.56
2023-03-29T13:28:36.992Z,22.88
2023-03-29T13:31:24.547Z,23.16
2023-03-29T13:34:31.191Z,23.33
2023-03-29T13:37:31.584Z,23.64
2023-03-29T13:39:57.552Z,23.76
2023-03-29T13:42:36.763Z,23.48
2023-03-29T13:45:24.553Z,22.88
2023-03-29T13:48:21.841Z,22.83
2023-03-29T13:51:07.344Z,22.84
2023-03-29T13:53:43.548Z,22.83
2023-03-29T13:56:19.423Z,22.64
2023-03-29T13:58:50.616Z,22.52
2023-03-29T14:01:22.939Z,22.55
2023-03-29T14:03:53.138Z,22.47
2023-03-29T14:06:25.904Z,22.30
2023-03-29T14:08:53.533Z,22.10
2023-03-29T14:11:23.879Z,21.89
2023-03-29T14:13:54.831Z,21.79
2023-03-29T14:16:21.606Z,21.68
2023-03-29T14:18:50.648Z,21.41
2023-03-29T14:21:17.860Z,21.28
2023-03-29T14:23:46.095Z,21.17
2023-03-29T14:26:21.376Z,20.94
2023-03-29T14:28:52.964Z,20.74
2023-03-29T14:31:21.674Z,20.54
2023-03-29T14:33:56.458Z,20.39
2023-03-29T14:36:26.611Z,20.20
2023-03-29T14:38:58.728Z,20.02
2023-03-29T14:41:33.861Z,19.86
2023-03-29T14:44:00.570Z,19.71
2023-03-29T14:46:28.494Z,19.63
2023-03-29T14:48:56.168Z,19.60
2023-03-29T14:51:28.034Z,19.49
2023-03-29T14:53:55.488Z,19.37
2023-03-29T14:56:24.908Z,19.26
2023-03-29T14:58:54.124Z,19.10
2023-03-29T15:01:22.996Z,18.99
2023-03-29T15:03:53.487Z,18.99
2023-03-29T15:06:22.233Z,18.97
2023-03-29T15:09:03.769Z,18.89
2023-03-29T15:11:32.236Z,18.78
2023-03-29T15:14:05.594Z,18.71
2023-03-29T15:16:32.934Z,18.67
2023-03-29T15:19:01.229Z,18.63
2023-03-29T15:21:34.872Z,18.62
2023-03-29T15:24:03.837Z,18.59
2023-03-29T15:26:35.473Z,18.55
2023-03-29T15:29:23.008Z,18.52
2023-03-29T15:31:58.507Z,18.48
2023-03-29T15:34:28.724Z,18.44
2023-03-29T15:36:57.301Z,18.42
2023-03-29T15:39:24.366Z,18.40
2023-03-29T15:41:52.075Z,18.39
2023-03-29T15:44:32.911Z,18.36
2023-03-29T15:47:00.007Z,18.30
2023-03-29T15:49:28.002Z,18.27
2023-03-29T15:51:54.095Z,18.26
2023-03-29T15:54:21.958Z,18.26
2023-03-29T15:56:52.882Z,18.25
2023-03-29T15:59:19.017Z,18.21
2023-03-29T16:01:45.973Z,18.16
2023-03-29T16:04:14.758Z,18.10
2023-03-29T16:06:42.345Z,18.02
2023-03-29T16:09:11.183Z,17.99
2023-03-29T16:11:38.664Z,17.97
2023-03-29T16:14:26.477Z,17.95
2023-03-29T16:16:57.693Z,17.93
2023-03-29T16:19:25.334Z,17.90
2023-03-29T16:21:52.456Z,17.88
2023-03-29T16:24:21.421Z,17.88
2023-03-29T16:26:48.015Z,17.89
2023-03-29T16:29:16.620Z,17.92
2023-03-29T16:31:44.001Z,17.93
2023-03-29T16:34:13.048Z,17.91
2023-03-29T16:36:40.297Z,17.88
2023-03-29T16:39:06.683Z,17.85
2023-03-29T16:41:32.765Z,17.78
2023-03-29T16:43:59.335Z,17.73
2023-03-29T16:46:25.818Z,17.71
2023-03-29T16:48:53.031Z,17.68
2023-03-29T16:51:20.150Z,17.65
2023-03-29T16:53:50.870Z,17.62
2023-03-29T16:56:20.021Z,17.59
2023-03-29T16:58:46.549Z,17.53
2023-03-29T17:01:15.332Z,17.50
2023-03-29T17:03:42.418Z,17.47
2023-03-29T17:06:10.294Z,17.43
2023-03-29T17:08:37.406Z,17.40
2023-03-29T17:11:04.064Z,17.38
2023-03-29T17:13:30.409Z,17.36
2023-03-29T17:15:57.178Z,17.33
2023-03-29T17:18:24.582Z,17.31
2023-03-29T17:20:52.282Z,17.28
2023-03-29T17:23:18.256Z,17.25
2023-03-29T17:25:44.237Z,17.26
2023-03-29T17:28:10.859Z,17.23
2023-03-29T17:30:37.452Z,17.17
2023-03-29T17:33:03.502Z,17.12
2023-03-29T17:35:29.658Z,17.08
2023-03-29T17:37:55.889Z,17.01
2023-03-29T17:40:21.880Z,16.94
2023-03-29T17:42:48.247Z,16.86
2023-03-29T17:45:15.606Z,16.79
2023-03-29T17:47:41.953Z,16.71
2023-03-29T17:50:09.583Z,16.61
2023-03-29T17:52:35.797Z,16.49
2023-03-29T17:55:01.940Z,16.38
2023-03-29T17:57:28.210Z,16.28
2023-03-29T17:59:54.179Z,16.19
2023-03-29T18:02:22.425Z,16.10
2023-03-29T18:04:49.992Z,15.99
2023-03-29T18:07:16.697Z,15.89
2023-03-29T18:09:42.667Z,15.78
2023-03-29T18:12:09.049Z,15.67
2023-03-29T18:14:35.281Z,15.60
2023-03-29T18:17:01.885Z,15.52
2023-03-29T18:19:28.031Z,15.45
2023-03-29T18:21:54.069Z,15.40
2023-03-29T18:24:20.035Z,15.34
2023-03-29T18:26:46.090Z,15.26
2023-03-29T18:29:12.513Z,15.20
2023-03-29T18:31:38.596Z,15.15
2023-03-29T18:34:04.624Z,15.09
2023-03-29T18:36:31.479Z,15.03
2023-03-29T18:39:04.642Z,14.98
2023-03-29T18:41:32.289Z,14.92
2023-03-29T18:43:59.563Z,14.85
2023-03-29T18:46:29.828Z,14.80
2023-03-29T18:48:57.428Z,14.76
2023-03-29T18:51:25.113Z,14.71
2023-03-29T18:53:52.210Z,14.64
2023-03-29T18:56:18.226Z,14.58
2023-03-29T18:58:44.105Z,14.54
2023-03-29T19:01:10.636Z,14.51
2023-03-29T19:03:36.822Z,14.48
2023-03-29T19:06:04.028Z,14.44
2023-03-29T19:08:32.251Z,14.44
2023-03-29T19:11:04.024Z,14.43
2023-03-29T19:13:30.299Z,14.40
2023-03-29T19:15:56.385Z,14.38
2023-03-29T19:18:25.725Z,14.36
2023-03-29T19:20:53.551Z,14.36
2023-03-29T19:23:22.475Z,14.35
2023-03-29T19:25:59.624Z,14.34
2023-03-29T19:28:27.686Z,14.32
2023-03-29T19:30:58.120Z,14.33
2023-03-29T19:33:24.620Z,14.34
2023-03-29T19:35:52.493Z,14.36
2023-03-29T19:38:20.425Z,14.37
2023-03-29T19:40:48.766Z,14.38
2023-03-29T19:43:16.193Z,14.39
2023-03-29T19:45:49.688Z,14.39
2023-03-29T19:48:22.505Z,14.38
2023-03-29T19:50:50.683Z,14.38
2023-03-29T19:53:23.789Z,14.36
2023-03-29T19:55:51.876Z,14.34
2023-03-29T19:58:19.468Z,14.32
2023-03-29T20:00:51.474Z,14.30
2023-03-29T20:03:22.485Z,14.29
2023-03-29T20:05:52.699Z,14.28
2023-03-29T20:08:20.782Z,14.26
2023-03-29T20:10:49.161Z,14.24
2023-03-29T20:13:31.469Z,14.23
2023-03-29T20:16:15.448Z,14.20
2023-03-29T20:18:47.536Z,14.17
2023-03-29T20:21:18.275Z,14.16
2023-03-29T20:23:47.777Z,14.14
2023-03-29T20:26:14.644Z,14.11
2023-03-29T20:28:42.058Z,14.09
2023-03-29T20:31:13.611Z,14.06
2023-03-29T20:33:40.877Z,14.02
2023-03-29T20:36:08.139Z,13.96
2023-03-29T20:38:35.852Z,13.93
2023-03-29T20:41:05.736Z,13.89
2023-03-29T20:43:36.769Z,13.84
2023-03-29T20:46:17.506Z,13.77
2023-03-29T20:48:53.411Z,13.69
2023-03-29T20:51:27.407Z,13.64
2023-03-29T20:54:01.425Z,13.61
2023-03-29T20:56:34.673Z,13.58
2023-03-29T20:59:01.248Z,13.55
2023-03-29T21:01:28.883Z,13.53
2023-03-29T21:03:55.214Z,13.52
2023-03-29T21:06:23.611Z,13.51
2023-03-29T21:08:51.896Z,13.52
2023-03-29T21:11:20.249Z,13.53
2023-03-29T21:13:46.772Z,13.53
2023-03-29T21:16:13.075Z,13.55
2023-03-29T21:18:39.824Z,13.56
2023-03-29T21:21:07.624Z,13.55
2023-03-29T21:23:37.527Z,13.57
2023-03-29T21:26:06.630Z,13.58
2023-03-29T21:28:34.230Z,13.60
2023-03-29T21:31:04.966Z,13.62
2023-03-29T21:33:31.653Z,13.64
2023-03-29T21:35:57.841Z,13.64
2023-03-29T21:38:23.900Z,13.65
2023-03-29T21:40:49.973Z,13.67
2023-03-29T21:43:15.995Z,13.67
2023-03-29T21:45:41.963Z,13.68
2023-03-29T21:48:08.005Z,13.67
2023-03-29T21:50:34.144Z,13.66
2023-03-29T21:53:01.340Z,13.66
2023-03-29T21:55:27.922Z,13.68
2023-03-29T21:57:53.906Z,13.69
2023-03-29T22:00:21.641Z,13.70
2023-03-29T22:02:47.833Z,13.70
2023-03-29T22:05:14.413Z,13.71
2023-03-29T22:07:40.371Z,13.73
2023-03-29T22:10:07.210Z,13.75
2023-03-29T22:12:37.328Z,13.75
2023-03-29T22:15:08.249Z,13.76
2023-03-29T22:17:35.318Z,13.75
2023-03-29T22:20:02.075Z,13.73
2023-03-29T22:22:28.101Z,13.70
2023-03-29T22:24:54.472Z,13.66
2023-03-29T22:27:21.459Z,13.62
2023-03-29T22:29:47.849Z,13.59
2023-03-29T22:32:13.895Z,13.57
2023-03-29T22:34:39.904Z,13.55
2023-03-29T22:37:05.739Z,13.52
2023-03-29T22:39:34.567Z,13.46
2023-03-29T22:42:00.655Z,13.43
2023-03-29T22:44:26.652Z,13.41
2023-03-29T22:46:52.564Z,13.41
2023-03-29T22:49:18.536Z,13.39
2023-03-29T22:51:44.713Z,13.37
2023-03-29T22:54:11.405Z,13.34
2023-03-29T22:56:37.283Z,13.32
2023-03-29T22:59:03.492Z,13.32
2023-03-29T23:01:29.693Z,13.31
2023-03-29T23:03:55.719Z,13.29
2023-03-29T23:06:21.603Z,13.27
2023-03-29T23:08:47.543Z,13.24
2023-03-29T23:11:13.434Z,13.23
2023-03-29T23:13:39.443Z,13.22
2023-03-29T23:16:05.629Z,13.21
2023-03-29T23:18:34.055Z,13.18
2023-03-29T23:21:00.795Z,13.17
2023-03-29T23:23:27.836Z,13.13
2023-03-29T23:25:55.051Z,13.10
2023-03-29T23:28:26.602Z,13.08
2023-03-29T23:30:54.698Z,13.05
2023-03-29T23:33:21.271Z,13.05
2023-03-29T23:35:47.745Z,13.06
2023-03-29T23:38:13.687Z,13.08
2023-03-29T23:40:39.608Z,13.08
2023-03-29T23:43:05.536Z,13.08
2023-03-29T23:45:31.817Z,13.07
2023-03-29T23:47:57.903Z,13.07
2023-03-29T23:50:23.923Z,13.07
2023-03-29T23:52:50.901Z,13.07
2023-03-29T23:55:17.415Z,13.06
2023-03-29T23:57:43.303Z,13.06
